sensor_id;sensor_type;location;lat;lon;timestamp;P1;durP1;ratioP1;P2;durP2;ratioP2
31728;SDS011;18309;43.658;1.312;2023-11-21T00:02:13;22.40;;;2.75;;
31728;SDS011;18309;43.658;1.312;2023-11-21T00:04:39;19.15;;;3.05;;
31728;SDS011;18309;43.658;1.312;2023-11-21T00:07:04;20.85;;;3.35;;
31728;SDS011;18309;43.658;1.312;2023-11-21T00:09:31;21.30;;;3.33;;
31728;SDS011;18309;43.658;1.312;2023-11-21T00:11:57;17.88;;;3.28;;
31728;SDS011;18309;43.658;1.312;2023-11-21T00:14:24;28.27;;;4.00;;
31728;SDS011;18309;43.658;1.312;2023-11-21T00:16:50;18.70;;;3.30;;
31728;SDS011;18309;43.658;1.312;2023-11-21T00:19:16;17.27;;;3.40;;
31728;SDS011;18309;43.658;1.312;2023-11-21T00:21:42;16.85;;;3.45;;
31728;SDS011;18309;43.658;1.312;2023-11-21T00:24:09;30.08;;;3.17;;
31728;SDS011;18309;43.658;1.312;2023-11-21T00:26:35;15.73;;;2.53;;
31728;SDS011;18309;43.658;1.312;2023-11-21T00:29:04;21.17;;;2.63;;
31728;SDS011;18309;43.658;1.312;2023-11-21T00:31:33;22.58;;;3.30;;
31728;SDS011;18309;43.658;1.312;2023-11-21T00:34:01;26.02;;;3.55;;
31728;SDS011;18309;43.658;1.312;2023-11-21T00:36:30;21.40;;;3.13;;
31728;SDS011;18309;43.658;1.312;2023-11-21T00:38:57;22.58;;;2.70;;
31728;SDS011;18309;43.658;1.312;2023-11-21T00:41:24;11.23;;;2.50;;
31728;SDS011;18309;43.658;1.312;2023-11-21T00:43:52;18.65;;;2.72;;
31728;SDS011;18309;43.658;1.312;2023-11-21T00:46:19;20.95;;;2.58;;
31728;SDS011;18309;43.658;1.312;2023-11-21T00:48:44;15.13;;;2.78;;
31728;SDS011;18309;43.658;1.312;2023-11-21T00:51:10;28.20;;;2.92;;
31728;SDS011;18309;43.658;1.312;2023-11-21T00:53:36;16.92;;;3.15;;
31728;SDS011;18309;43.658;1.312;2023-11-21T00:56:01;17.25;;;2.85;;
31728;SDS011;18309;43.658;1.312;2023-11-21T00:58:27;21.35;;;2.85;;
31728;SDS011;18309;43.658;1.312;2023-11-21T01:00:53;18.98;;;2.88;;
31728;SDS011;18309;43.658;1.312;2023-11-21T01:03:19;22.42;;;2.50;;
31728;SDS011;18309;43.658;1.312;2023-11-21T01:05:45;21.92;;;2.53;;
31728;SDS011;18309;43.658;1.312;2023-11-21T01:08:11;13.50;;;2.00;;
31728;SDS011;18309;43.658;1.312;2023-11-21T01:10:36;20.20;;;2.28;;
31728;SDS011;18309;43.658;1.312;2023-11-21T01:13:02;25.42;;;2.85;;
31728;SDS011;18309;43.658;1.312;2023-11-21T01:15:32;13.23;;;1.83;;
31728;SDS011;18309;43.658;1.312;2023-11-21T01:17:58;19.92;;;2.05;;
31728;SDS011;18309;43.658;1.312;2023-11-21T01:20:23;14.65;;;1.77;;
31728;SDS011;18309;43.658;1.312;2023-11-21T01:22:49;16.48;;;1.92;;
31728;SDS011;18309;43.658;1.312;2023-11-21T01:25:15;26.25;;;3.13;;
31728;SDS011;18309;43.658;1.312;2023-11-21T01:27:41;20.77;;;2.67;;
31728;SDS011;18309;43.658;1.312;2023-11-21T01:30:08;17.65;;;1.83;;
31728;SDS011;18309;43.658;1.312;2023-11-21T01:32:36;19.88;;;1.73;;
31728;SDS011;18309;43.658;1.312;2023-11-21T01:35:02;16.33;;;2.00;;
31728;SDS011;18309;43.658;1.312;2023-11-21T01:37:30;22.02;;;2.42;;
31728;SDS011;18309;43.658;1.312;2023-11-21T01:39:56;17.83;;;2.30;;
31728;SDS011;18309;43.658;1.312;2023-11-21T01:42:22;11.30;;;1.77;;
31728;SDS011;18309;43.658;1.312;2023-11-21T01:44:47;13.93;;;1.98;;
31728;SDS011;18309;43.658;1.312;2023-11-21T01:47:14;21.65;;;2.03;;
31728;SDS011;18309;43.658;1.312;2023-11-21T01:49:43;19.02;;;1.95;;
31728;SDS011;18309;43.658;1.312;2023-11-21T01:52:10;20.95;;;2.30;;
31728;SDS011;18309;43.658;1.312;2023-11-21T01:54:36;17.95;;;2.05;;
31728;SDS011;18309;43.658;1.312;2023-11-21T01:57:03;20.90;;;2.08;;
31728;SDS011;18309;43.658;1.312;2023-11-21T01:59:35;20.02;;;1.95;;
31728;SDS011;18309;43.658;1.312;2023-11-21T02:02:02;20.15;;;2.28;;
31728;SDS011;18309;43.658;1.312;2023-11-21T02:04:35;13.17;;;1.53;;
31728;SDS011;18309;43.658;1.312;2023-11-21T02:07:01;22.03;;;2.23;;
31728;SDS011;18309;43.658;1.312;2023-11-21T02:09:31;14.88;;;2.10;;
31728;SDS011;18309;43.658;1.312;2023-11-21T02:11:58;21.08;;;3.05;;
31728;SDS011;18309;43.658;1.312;2023-11-21T02:14:24;20.70;;;1.77;;
31728;SDS011;18309;43.658;1.312;2023-11-21T02:16:51;20.48;;;2.40;;
31728;SDS011;18309;43.658;1.312;2023-11-21T02:19:19;18.98;;;2.00;;
31728;SDS011;18309;43.658;1.312;2023-11-21T02:21:49;18.10;;;2.13;;
31728;SDS011;18309;43.658;1.312;2023-11-21T02:24:18;14.35;;;1.75;;
31728;SDS011;18309;43.658;1.312;2023-11-21T02:26:50;8.98;;;1.27;;
31728;SDS011;18309;43.658;1.312;2023-11-21T02:29:19;16.70;;;1.83;;
31728;SDS011;18309;43.658;1.312;2023-11-21T02:31:47;12.45;;;1.83;;
31728;SDS011;18309;43.658;1.312;2023-11-21T02:34:14;11.35;;;1.95;;
31728;SDS011;18309;43.658;1.312;2023-11-21T02:36:40;10.75;;;1.48;;
31728;SDS011;18309;43.658;1.312;2023-11-21T02:39:07;15.15;;;1.95;;
31728;SDS011;18309;43.658;1.312;2023-11-21T02:41:33;13.68;;;1.70;;
31728;SDS011;18309;43.658;1.312;2023-11-21T02:43:59;10.43;;;1.92;;
31728;SDS011;18309;43.658;1.312;2023-11-21T02:46:25;20.20;;;2.42;;
31728;SDS011;18309;43.658;1.312;2023-11-21T02:48:51;8.52;;;1.40;;
31728;SDS011;18309;43.658;1.312;2023-11-21T02:51:19;10.50;;;1.70;;
31728;SDS011;18309;43.658;1.312;2023-11-21T02:53:45;11.23;;;1.30;;
31728;SDS011;18309;43.658;1.312;2023-11-21T02:56:11;9.55;;;1.58;;
31728;SDS011;18309;43.658;1.312;2023-11-21T02:58:37;8.55;;;1.35;;
31728;SDS011;18309;43.658;1.312;2023-11-21T03:01:06;13.10;;;1.98;;
31728;SDS011;18309;43.658;1.312;2023-11-21T03:03:32;9.27;;;2.13;;
31728;SDS011;18309;43.658;1.312;2023-11-21T03:05:58;8.63;;;1.05;;
31728;SDS011;18309;43.658;1.312;2023-11-21T03:08:23;12.30;;;1.25;;
31728;SDS011;18309;43.658;1.312;2023-11-21T03:10:49;11.05;;;1.83;;
31728;SDS011;18309;43.658;1.312;2023-11-21T03:13:15;14.15;;;1.30;;
31728;SDS011;18309;43.658;1.312;2023-11-21T03:15:40;11.75;;;1.40;;
31728;SDS011;18309;43.658;1.312;2023-11-21T03:18:07;8.07;;;1.40;;
31728;SDS011;18309;43.658;1.312;2023-11-21T03:20:33;15.50;;;1.40;;
31728;SDS011;18309;43.658;1.312;2023-11-21T03:23:00;10.70;;;1.65;;
31728;SDS011;18309;43.658;1.312;2023-11-21T03:25:25;10.98;;;1.30;;
31728;SDS011;18309;43.658;1.312;2023-11-21T03:27:51;14.13;;;1.63;;
31728;SDS011;18309;43.658;1.312;2023-11-21T03:30:18;13.73;;;1.27;;
31728;SDS011;18309;43.658;1.312;2023-11-21T03:32:44;7.25;;;1.30;;
31728;SDS011;18309;43.658;1.312;2023-11-21T03:35:10;11.32;;;1.60;;
31728;SDS011;18309;43.658;1.312;2023-11-21T03:37:36;12.43;;;1.27;;
31728;SDS011;18309;43.658;1.312;2023-11-21T03:40:03;17.42;;;1.90;;
31728;SDS011;18309;43.658;1.312;2023-11-21T03:42:29;12.02;;;1.65;;
31728;SDS011;18309;43.658;1.312;2023-11-21T03:44:55;12.65;;;1.20;;
31728;SDS011;18309;43.658;1.312;2023-11-21T03:47:21;14.00;;;1.95;;
31728;SDS011;18309;43.658;1.312;2023-11-21T03:49:46;23.08;;;1.48;;
31728;SDS011;18309;43.658;1.312;2023-11-21T03:52:12;14.68;;;1.55;;
31728;SDS011;18309;43.658;1.312;2023-11-21T03:54:38;12.13;;;1.40;;
31728;SDS011;18309;43.658;1.312;2023-11-21T03:57:04;13.52;;;1.58;;
31728;SDS011;18309;43.658;1.312;2023-11-21T03:59:29;11.45;;;1.40;;
31728;SDS011;18309;43.658;1.312;2023-11-21T04:01:56;11.10;;;1.80;;
31728;SDS011;18309;43.658;1.312;2023-11-21T04:04:25;11.88;;;1.60;;
31728;SDS011;18309;43.658;1.312;2023-11-21T04:06:50;15.43;;;2.13;;
31728;SDS011;18309;43.658;1.312;2023-11-21T04:09:19;12.98;;;2.13;;
31728;SDS011;18309;43.658;1.312;2023-11-21T04:11:44;12.88;;;2.10;;
31728;SDS011;18309;43.658;1.312;2023-11-21T04:14:10;12.77;;;1.45;;
31728;SDS011;18309;43.658;1.312;2023-11-21T04:16:36;17.00;;;1.48;;
31728;SDS011;18309;43.658;1.312;2023-11-21T04:19:02;8.25;;;1.30;;
31728;SDS011;18309;43.658;1.312;2023-11-21T04:21:28;11.38;;;2.03;;
31728;SDS011;18309;43.658;1.312;2023-11-21T04:23:53;14.52;;;1.52;;
31728;SDS011;18309;43.658;1.312;2023-11-21T04:26:19;14.35;;;1.73;;
31728;SDS011;18309;43.658;1.312;2023-11-21T04:28:44;17.70;;;1.40;;
31728;SDS011;18309;43.658;1.312;2023-11-21T04:31:10;10.10;;;1.77;;
31728;SDS011;18309;43.658;1.312;2023-11-21T04:33:36;9.02;;;1.42;;
31728;SDS011;18309;43.658;1.312;2023-11-21T04:36:01;16.65;;;1.70;;
31728;SDS011;18309;43.658;1.312;2023-11-21T04:38:27;21.17;;;1.77;;
31728;SDS011;18309;43.658;1.312;2023-11-21T04:40:52;7.32;;;1.10;;
31728;SDS011;18309;43.658;1.312;2023-11-21T04:43:18;9.82;;;1.30;;
31728;SDS011;18309;43.658;1.312;2023-11-21T04:45:44;16.67;;;1.70;;
31728;SDS011;18309;43.658;1.312;2023-11-21T04:48:12;17.20;;;1.63;;
31728;SDS011;18309;43.658;1.312;2023-11-21T04:50:38;16.83;;;2.35;;
31728;SDS011;18309;43.658;1.312;2023-11-21T04:53:03;13.60;;;1.45;;
31728;SDS011;18309;43.658;1.312;2023-11-21T04:55:30;14.25;;;1.90;;
31728;SDS011;18309;43.658;1.312;2023-11-21T04:57:56;9.70;;;1.77;;
31728;SDS011;18309;43.658;1.312;2023-11-21T05:00:22;13.23;;;1.40;;
31728;SDS011;18309;43.658;1.312;2023-11-21T05:02:47;8.80;;;1.52;;
31728;SDS011;18309;43.658;1.312;2023-11-21T05:05:13;10.73;;;1.92;;
31728;SDS011;18309;43.658;1.312;2023-11-21T05:07:39;15.02;;;2.35;;
31728;SDS011;18309;43.658;1.312;2023-11-21T05:10:06;14.63;;;1.88;;
31728;SDS011;18309;43.658;1.312;2023-11-21T05:12:35;10.77;;;1.40;;
31728;SDS011;18309;43.658;1.312;2023-11-21T05:15:04;19.50;;;1.58;;
31728;SDS011;18309;43.658;1.312;2023-11-21T05:17:37;13.63;;;1.77;;
31728;SDS011;18309;43.658;1.312;2023-11-21T05:20:06;10.18;;;1.30;;
31728;SDS011;18309;43.658;1.312;2023-11-21T05:22:33;16.42;;;1.65;;
31728;SDS011;18309;43.658;1.312;2023-11-21T05:24:59;10.70;;;2.05;;
31728;SDS011;18309;43.658;1.312;2023-11-21T05:27:26;7.28;;;1.40;;
31728;SDS011;18309;43.658;1.312;2023-11-21T05:29:51;18.08;;;1.77;;
31728;SDS011;18309;43.658;1.312;2023-11-21T05:32:17;10.50;;;1.38;;
31728;SDS011;18309;43.658;1.312;2023-11-21T05:34:43;13.82;;;1.30;;
31728;SDS011;18309;43.658;1.312;2023-11-21T05:37:08;9.95;;;1.23;;
31728;SDS011;18309;43.658;1.312;2023-11-21T05:39:34;8.18;;;1.50;;
31728;SDS011;18309;43.658;1.312;2023-11-21T05:42:01;9.80;;;1.00;;
31728;SDS011;18309;43.658;1.312;2023-11-21T05:44:26;12.95;;;1.80;;
31728;SDS011;18309;43.658;1.312;2023-11-21T05:46:52;8.65;;;1.52;;
31728;SDS011;18309;43.658;1.312;2023-11-21T05:49:18;9.25;;;1.17;;
31728;SDS011;18309;43.658;1.312;2023-11-21T05:51:46;13.07;;;1.63;;
31728;SDS011;18309;43.658;1.312;2023-11-21T05:54:12;12.90;;;1.42;;
31728;SDS011;18309;43.658;1.312;2023-11-21T05:56:38;16.48;;;1.67;;
31728;SDS011;18309;43.658;1.312;2023-11-21T05:59:03;11.18;;;1.45;;
31728;SDS011;18309;43.658;1.312;2023-11-21T06:01:29;16.35;;;1.73;;
31728;SDS011;18309;43.658;1.312;2023-11-21T06:03:55;8.20;;;0.95;;
31728;SDS011;18309;43.658;1.312;2023-11-21T06:06:21;15.05;;;1.55;;
31728;SDS011;18309;43.658;1.312;2023-11-21T06:08:48;9.07;;;1.83;;
31728;SDS011;18309;43.658;1.312;2023-11-21T06:11:14;6.13;;;1.10;;
31728;SDS011;18309;43.658;1.312;2023-11-21T06:13:41;13.45;;;1.83;;
31728;SDS011;18309;43.658;1.312;2023-11-21T06:16:07;15.07;;;1.05;;
31728;SDS011;18309;43.658;1.312;2023-11-21T06:18:32;11.75;;;1.55;;
31728;SDS011;18309;43.658;1.312;2023-11-21T06:21:00;13.50;;;1.42;;
31728;SDS011;18309;43.658;1.312;2023-11-21T06:23:25;8.25;;;1.08;;
31728;SDS011;18309;43.658;1.312;2023-11-21T06:25:51;12.50;;;1.65;;
31728;SDS011;18309;43.658;1.312;2023-11-21T06:28:18;15.48;;;1.20;;
31728;SDS011;18309;43.658;1.312;2023-11-21T06:30:43;11.20;;;1.45;;
31728;SDS011;18309;43.658;1.312;2023-11-21T06:33:12;11.60;;;1.90;;
31728;SDS011;18309;43.658;1.312;2023-11-21T06:35:38;11.57;;;1.20;;
31728;SDS011;18309;43.658;1.312;2023-11-21T06:38:03;6.63;;;1.10;;
31728;SDS011;18309;43.658;1.312;2023-11-21T06:40:29;5.93;;;1.08;;
31728;SDS011;18309;43.658;1.312;2023-11-21T06:42:55;15.55;;;1.17;;
31728;SDS011;18309;43.658;1.312;2023-11-21T06:45:20;13.38;;;1.50;;
31728;SDS011;18309;43.658;1.312;2023-11-21T06:47:46;7.30;;;1.10;;
31728;SDS011;18309;43.658;1.312;2023-11-21T06:50:13;8.63;;;1.23;;
31728;SDS011;18309;43.658;1.312;2023-11-21T06:52:39;8.93;;;1.38;;
31728;SDS011;18309;43.658;1.312;2023-11-21T06:55:04;6.63;;;0.73;;
31728;SDS011;18309;43.658;1.312;2023-11-21T06:57:33;13.10;;;1.35;;
31728;SDS011;18309;43.658;1.312;2023-11-21T06:59:58;14.07;;;1.27;;
31728;SDS011;18309;43.658;1.312;2023-11-21T07:02:24;13.55;;;1.38;;
31728;SDS011;18309;43.658;1.312;2023-11-21T07:04:50;6.22;;;0.77;;
31728;SDS011;18309;43.658;1.312;2023-11-21T07:07:16;8.77;;;1.08;;
31728;SDS011;18309;43.658;1.312;2023-11-21T07:09:41;8.18;;;1.58;;
31728;SDS011;18309;43.658;1.312;2023-11-21T07:12:07;9.73;;;1.23;;
31728;SDS011;18309;43.658;1.312;2023-11-21T07:14:33;9.52;;;1.27;;
31728;SDS011;18309;43.658;1.312;2023-11-21T07:16:59;9.75;;;1.20;;
31728;SDS011;18309;43.658;1.312;2023-11-21T07:19:25;7.07;;;0.90;;
31728;SDS011;18309;43.658;1.312;2023-11-21T07:21:50;6.55;;;1.15;;
31728;SDS011;18309;43.658;1.312;2023-11-21T07:24:16;12.27;;;1.70;;
31728;SDS011;18309;43.658;1.312;2023-11-21T07:26:42;11.57;;;1.55;;
31728;SDS011;18309;43.658;1.312;2023-11-21T07:29:08;12.43;;;1.13;;
31728;SDS011;18309;43.658;1.312;2023-11-21T07:31:33;3.35;;;0.88;;
31728;SDS011;18309;43.658;1.312;2023-11-21T07:33:59;4.63;;;0.60;;
31728;SDS011;18309;43.658;1.312;2023-11-21T07:36:26;9.75;;;1.63;;
31728;SDS011;18309;43.658;1.312;2023-11-21T07:38:52;8.00;;;0.88;;
31728;SDS011;18309;43.658;1.312;2023-11-21T07:41:18;5.63;;;1.08;;
31728;SDS011;18309;43.658;1.312;2023-11-21T07:43:47;5.50;;;0.77;;
31728;SDS011;18309;43.658;1.312;2023-11-21T07:46:13;9.80;;;0.85;;
31728;SDS011;18309;43.658;1.312;2023-11-21T07:48:39;3.17;;;0.52;;
31728;SDS011;18309;43.658;1.312;2023-11-21T07:51:06;4.63;;;1.30;;
31728;SDS011;18309;43.658;1.312;2023-11-21T07:53:32;4.88;;;0.88;;
31728;SDS011;18309;43.658;1.312;2023-11-21T07:55:58;6.28;;;0.50;;
31728;SDS011;18309;43.658;1.312;2023-11-21T07:58:28;2.40;;;0.60;;
31728;SDS011;18309;43.658;1.312;2023-11-21T08:00:53;6.47;;;0.70;;
31728;SDS011;18309;43.658;1.312;2023-11-21T08:03:19;6.25;;;0.85;;
31728;SDS011;18309;43.658;1.312;2023-11-21T08:05:46;5.70;;;0.93;;
31728;SDS011;18309;43.658;1.312;2023-11-21T08:08:12;4.15;;;0.90;;
31728;SDS011;18309;43.658;1.312;2023-11-21T08:10:37;5.45;;;1.20;;
31728;SDS011;18309;43.658;1.312;2023-11-21T08:13:07;11.90;;;1.27;;
31728;SDS011;18309;43.658;1.312;2023-11-21T08:15:34;4.32;;;0.68;;
31728;SDS011;18309;43.658;1.312;2023-11-21T08:18:01;5.35;;;0.88;;
31728;SDS011;18309;43.658;1.312;2023-11-21T08:20:27;6.03;;;0.95;;
31728;SDS011;18309;43.658;1.312;2023-11-21T08:22:53;6.15;;;1.15;;
31728;SDS011;18309;43.658;1.312;2023-11-21T08:25:20;8.25;;;1.00;;
31728;SDS011;18309;43.658;1.312;2023-11-21T08:27:46;8.40;;;1.52;;
31728;SDS011;18309;43.658;1.312;2023-11-21T08:30:12;4.80;;;1.00;;
31728;SDS011;18309;43.658;1.312;2023-11-21T08:32:39;6.20;;;0.80;;
31728;SDS011;18309;43.658;1.312;2023-11-21T08:35:06;16.52;;;1.48;;
31728;SDS011;18309;43.658;1.312;2023-11-21T08:37:33;10.60;;;2.03;;
31728;SDS011;18309;43.658;1.312;2023-11-21T08:40:02;17.98;;;2.28;;
31728;SDS011;18309;43.658;1.312;2023-11-21T08:42:29;7.22;;;1.13;;
31728;SDS011;18309;43.658;1.312;2023-11-21T08:44:55;6.68;;;1.08;;
31728;SDS011;18309;43.658;1.312;2023-11-21T08:47:22;12.35;;;1.08;;
31728;SDS011;18309;43.658;1.312;2023-11-21T08:49:49;5.30;;;1.00;;
31728;SDS011;18309;43.658;1.312;2023-11-21T08:52:18;27.85;;;2.75;;
31728;SDS011;18309;43.658;1.312;2023-11-21T08:54:48;9.52;;;1.63;;
31728;SDS011;18309;43.658;1.312;2023-11-21T08:57:20;11.30;;;1.80;;
31728;SDS011;18309;43.658;1.312;2023-11-21T08:59:47;12.40;;;1.58;;
31728;SDS011;18309;43.658;1.312;2023-11-21T09:02:12;8.43;;;1.75;;
31728;SDS011;18309;43.658;1.312;2023-11-21T09:04:38;9.13;;;1.65;;
31728;SDS011;18309;43.658;1.312;2023-11-21T09:07:04;11.73;;;1.92;;
31728;SDS011;18309;43.658;1.312;2023-11-21T09:09:30;14.70;;;1.70;;
31728;SDS011;18309;43.658;1.312;2023-11-21T09:11:56;8.52;;;1.65;;
31728;SDS011;18309;43.658;1.312;2023-11-21T09:14:22;5.43;;;0.90;;
31728;SDS011;18309;43.658;1.312;2023-11-21T09:16:47;5.93;;;1.00;;
31728;SDS011;18309;43.658;1.312;2023-11-21T09:19:14;7.10;;;1.00;;
31728;SDS011;18309;43.658;1.312;2023-11-21T09:21:40;8.68;;;1.10;;
31728;SDS011;18309;43.658;1.312;2023-11-21T09:24:06;4.75;;;0.80;;
31728;SDS011;18309;43.658;1.312;2023-11-21T09:26:34;3.45;;;0.50;;
31728;SDS011;18309;43.658;1.312;2023-11-21T09:28:59;5.28;;;1.00;;
31728;SDS011;18309;43.658;1.312;2023-11-21T09:31:27;3.58;;;0.95;;
31728;SDS011;18309;43.658;1.312;2023-11-21T09:33:52;8.57;;;1.02;;
31728;SDS011;18309;43.658;1.312;2023-11-21T09:36:18;6.95;;;1.02;;
31728;SDS011;18309;43.658;1.312;2023-11-21T09:38:44;7.93;;;1.13;;
31728;SDS011;18309;43.658;1.312;2023-11-21T09:41:11;5.97;;;1.50;;
31728;SDS011;18309;43.658;1.312;2023-11-21T09:44:00;7.63;;;1.42;;
31728;SDS011;18309;43.658;1.312;2023-11-21T09:46:32;6.68;;;1.17;;
31728;SDS011;18309;43.658;1.312;2023-11-21T09:48:59;5.32;;;1.13;;
31728;SDS011;18309;43.658;1.312;2023-11-21T09:51:30;5.43;;;0.88;;
31728;SDS011;18309;43.658;1.312;2023-11-21T09:53:58;3.15;;;0.93;;
31728;SDS011;18309;43.658;1.312;2023-11-21T09:56:27;6.05;;;1.15;;
31728;SDS011;18309;43.658;1.312;2023-11-21T09:58:55;7.32;;;0.95;;
31728;SDS011;18309;43.658;1.312;2023-11-21T10:01:22;9.52;;;1.25;;
31728;SDS011;18309;43.658;1.312;2023-11-21T10:03:49;6.05;;;1.63;;
31728;SDS011;18309;43.658;1.312;2023-11-21T10:06:15;5.15;;;1.00;;
31728;SDS011;18309;43.658;1.312;2023-11-21T10:08:42;3.67;;;1.00;;
31728;SDS011;18309;43.658;1.312;2023-11-21T10:11:08;4.65;;;1.85;;
31728;SDS011;18309;43.658;1.312;2023-11-21T10:13:37;2.83;;;0.77;;
31728;SDS011;18309;43.658;1.312;2023-11-21T10:16:04;5.65;;;1.13;;
31728;SDS011;18309;43.658;1.312;2023-11-21T10:18:32;2.70;;;0.95;;
31728;SDS011;18309;43.658;1.312;2023-11-21T10:20:59;4.78;;;0.88;;
31728;SDS011;18309;43.658;1.312;2023-11-21T10:23:25;4.50;;;0.88;;
31728;SDS011;18309;43.658;1.312;2023-11-21T10:25:52;4.20;;;1.30;;
31728;SDS011;18309;43.658;1.312;2023-11-21T10:28:18;7.63;;;1.48;;
31728;SDS011;18309;43.658;1.312;2023-11-21T10:30:45;4.30;;;1.10;;
31728;SDS011;18309;43.658;1.312;2023-11-21T10:33:11;5.78;;;1.20;;
31728;SDS011;18309;43.658;1.312;2023-11-21T10:35:44;4.72;;;1.05;;
31728;SDS011;18309;43.658;1.312;2023-11-21T10:38:16;2.67;;;0.80;;
31728;SDS011;18309;43.658;1.312;2023-11-21T10:40:43;4.93;;;1.60;;
31728;SDS011;18309;43.658;1.312;2023-11-21T10:43:10;5.03;;;1.00;;
31728;SDS011;18309;43.658;1.312;2023-11-21T10:45:39;4.82;;;1.15;;
31728;SDS011;18309;43.658;1.312;2023-11-21T10:48:05;3.47;;;1.15;;
31728;SDS011;18309;43.658;1.312;2023-11-21T10:50:42;4.70;;;1.30;;
31728;SDS011;18309;43.658;1.312;2023-11-21T10:53:09;6.47;;;1.65;;
31728;SDS011;18309;43.658;1.312;2023-11-21T10:55:37;2.15;;;0.90;;
31728;SDS011;18309;43.658;1.312;2023-11-21T10:58:03;3.40;;;1.17;;
31728;SDS011;18309;43.658;1.312;2023-11-21T11:00:31;5.53;;;1.77;;
31728;SDS011;18309;43.658;1.312;2023-11-21T11:02:58;5.60;;;1.70;;
31728;SDS011;18309;43.658;1.312;2023-11-21T11:05:24;5.85;;;1.50;;
31728;SDS011;18309;43.658;1.312;2023-11-21T11:08:04;5.05;;;1.75;;
31728;SDS011;18309;43.658;1.312;2023-11-21T11:10:31;5.32;;;1.70;;
31728;SDS011;18309;43.658;1.312;2023-11-21T11:12:57;6.85;;;2.10;;
31728;SDS011;18309;43.658;1.312;2023-11-21T11:15:26;3.40;;;1.40;;
31728;SDS011;18309;43.658;1.312;2023-11-21T11:17:53;5.72;;;1.92;;
31728;SDS011;18309;43.658;1.312;2023-11-21T11:20:22;6.05;;;1.40;;
31728;SDS011;18309;43.658;1.312;2023-11-21T11:28:10;6.38;;;1.83;;
31728;SDS011;18309;43.658;1.312;2023-11-21T11:33:41;5.10;;;1.50;;
31728;SDS011;18309;43.658;1.312;2023-11-21T11:38:47;3.50;;;1.38;;
31728;SDS011;18309;43.658;1.312;2023-11-21T11:41:26;3.08;;;1.17;;
31728;SDS011;18309;43.658;1.312;2023-11-21T11:43:57;4.18;;;1.58;;
31728;SDS011;18309;43.658;1.312;2023-11-21T11:46:42;4.13;;;1.13;;
31728;SDS011;18309;43.658;1.312;2023-11-21T11:49:24;4.60;;;1.17;;
31728;SDS011;18309;43.658;1.312;2023-11-21T11:55:04;3.05;;;0.70;;
31728;SDS011;18309;43.658;1.312;2023-11-21T12:00:15;1.73;;;0.52;;
31728;SDS011;18309;43.658;1.312;2023-11-21T12:02:51;2.05;;;0.82;;
31728;SDS011;18309;43.658;1.312;2023-11-21T12:05:18;5.25;;;1.23;;
31728;SDS011;18309;43.658;1.312;2023-11-21T12:07:45;2.25;;;1.30;;
31728;SDS011;18309;43.658;1.312;2023-11-21T12:10:13;4.20;;;1.63;;
31728;SDS011;18309;43.658;1.312;2023-11-21T12:12:46;9.23;;;1.63;;
31728;SDS011;18309;43.658;1.312;2023-11-21T12:15:13;10.35;;;1.88;;
31728;SDS011;18309;43.658;1.312;2023-11-21T12:17:41;4.65;;;1.48;;
31728;SDS011;18309;43.658;1.312;2023-11-21T12:20:08;6.50;;;1.98;;
31728;SDS011;18309;43.658;1.312;2023-11-21T12:22:49;6.65;;;1.95;;
31728;SDS011;18309;43.658;1.312;2023-11-21T12:25:16;12.77;;;2.67;;
31728;SDS011;18309;43.658;1.312;2023-11-21T12:27:43;7.75;;;2.65;;
31728;SDS011;18309;43.658;1.312;2023-11-21T12:30:17;11.95;;;3.35;;
31728;SDS011;18309;43.658;1.312;2023-11-21T12:32:53;6.93;;;2.30;;
31728;SDS011;18309;43.658;1.312;2023-11-21T12:35:21;9.32;;;3.45;;
31728;SDS011;18309;43.658;1.312;2023-11-21T12:37:48;11.38;;;3.40;;
31728;SDS011;18309;43.658;1.312;2023-11-21T12:40:17;10.80;;;3.42;;
31728;SDS011;18309;43.658;1.312;2023-11-21T12:42:43;11.60;;;3.78;;
31728;SDS011;18309;43.658;1.312;2023-11-21T12:47:56;6.18;;;3.13;;
31728;SDS011;18309;43.658;1.312;2023-11-21T12:50:33;11.82;;;2.72;;
31728;SDS011;18309;43.658;1.312;2023-11-21T12:53:02;7.18;;;3.10;;
31728;SDS011;18309;43.658;1.312;2023-11-21T12:55:30;7.35;;;2.53;;
31728;SDS011;18309;43.658;1.312;2023-11-21T12:57:57;5.28;;;2.53;;
31728;SDS011;18309;43.658;1.312;2023-11-21T13:00:34;5.78;;;2.70;;
31728;SDS011;18309;43.658;1.312;2023-11-21T13:03:04;6.68;;;2.40;;
31728;SDS011;18309;43.658;1.312;2023-11-21T13:05:34;4.82;;;1.88;;
31728;SDS011;18309;43.658;1.312;2023-11-21T13:08:03;4.32;;;1.42;;
31728;SDS011;18309;43.658;1.312;2023-11-21T13:10:33;3.28;;;1.88;;
31728;SDS011;18309;43.658;1.312;2023-11-21T13:13:01;4.65;;;1.48;;
31728;SDS011;18309;43.658;1.312;2023-11-21T13:15:30;3.05;;;1.27;;
31728;SDS011;18309;43.658;1.312;2023-11-21T13:17:57;4.88;;;1.70;;
31728;SDS011;18309;43.658;1.312;2023-11-21T13:20:26;3.42;;;1.77;;
31728;SDS011;18309;43.658;1.312;2023-11-21T13:22:53;6.10;;;2.20;;
31728;SDS011;18309;43.658;1.312;2023-11-21T13:25:24;18.67;;;3.17;;
31728;SDS011;18309;43.658;1.312;2023-11-21T13:27:54;4.88;;;2.20;;
31728;SDS011;18309;43.658;1.312;2023-11-21T13:30:20;6.53;;;2.03;;
31728;SDS011;18309;43.658;1.312;2023-11-21T13:32:56;8.18;;;2.80;;
31728;SDS011;18309;43.658;1.312;2023-11-21T13:35:30;6.20;;;2.22;;
31728;SDS011;18309;43.658;1.312;2023-11-21T13:38:05;9.45;;;2.35;;
31728;SDS011;18309;43.658;1.312;2023-11-21T13:40:36;5.85;;;2.20;;
31728;SDS011;18309;43.658;1.312;2023-11-21T13:43:08;5.22;;;2.17;;
31728;SDS011;18309;43.658;1.312;2023-11-21T13:45:38;7.13;;;3.10;;
31728;SDS011;18309;43.658;1.312;2023-11-21T13:48:04;10.20;;;3.58;;
31728;SDS011;18309;43.658;1.312;2023-11-21T13:50:35;5.10;;;2.60;;
31728;SDS011;18309;43.658;1.312;2023-11-21T13:53:09;11.00;;;3.08;;
31728;SDS011;18309;43.658;1.312;2023-11-21T13:55:50;10.30;;;2.83;;
31728;SDS011;18309;43.658;1.312;2023-11-21T13:58:19;7.97;;;2.80;;
31728;SDS011;18309;43.658;1.312;2023-11-21T14:01:05;12.68;;;3.00;;
31728;SDS011;18309;43.658;1.312;2023-11-21T14:03:38;5.30;;;1.95;;
31728;SDS011;18309;43.658;1.312;2023-11-21T14:06:15;6.88;;;2.10;;
31728;SDS011;18309;43.658;1.312;2023-11-21T14:08:48;6.00;;;2.30;;
31728;SDS011;18309;43.658;1.312;2023-11-21T14:11:14;4.53;;;1.27;;
31728;SDS011;18309;43.658;1.312;2023-11-21T14:13:42;5.47;;;1.75;;
31728;SDS011;18309;43.658;1.312;2023-11-21T14:16:12;11.23;;;1.95;;
31728;SDS011;18309;43.658;1.312;2023-11-21T14:18:39;6.10;;;2.00;;
31728;SDS011;18309;43.658;1.312;2023-11-21T14:21:17;6.50;;;2.03;;
31728;SDS011;18309;43.658;1.312;2023-11-21T14:23:43;4.15;;;2.00;;
31728;SDS011;18309;43.658;1.312;2023-11-21T14:26:10;8.05;;;2.28;;
31728;SDS011;18309;43.658;1.312;2023-11-21T14:28:39;10.27;;;2.63;;
31728;SDS011;18309;43.658;1.312;2023-11-21T14:31:04;9.02;;;3.28;;
31728;SDS011;18309;43.658;1.312;2023-11-21T14:33:30;9.70;;;2.75;;
31728;SDS011;18309;43.658;1.312;2023-11-21T14:35:56;5.88;;;2.80;;
31728;SDS011;18309;43.658;1.312;2023-11-21T14:38:22;7.07;;;2.70;;
31728;SDS011;18309;43.658;1.312;2023-11-21T14:40:48;6.60;;;2.65;;
31728;SDS011;18309;43.658;1.312;2023-11-21T14:43:14;9.63;;;2.67;;
31728;SDS011;18309;43.658;1.312;2023-11-21T14:45:40;6.65;;;2.38;;
31728;SDS011;18309;43.658;1.312;2023-11-21T14:48:06;2.50;;;1.38;;
31728;SDS011;18309;43.658;1.312;2023-11-21T14:50:41;5.00;;;2.08;;
31728;SDS011;18309;43.658;1.312;2023-11-21T14:53:10;6.40;;;2.20;;
31728;SDS011;18309;43.658;1.312;2023-11-21T14:55:37;4.45;;;2.05;;
31728;SDS011;18309;43.658;1.312;2023-11-21T14:58:18;6.05;;;1.95;;
31728;SDS011;18309;43.658;1.312;2023-11-21T15:00:53;3.85;;;1.83;;
31728;SDS011;18309;43.658;1.312;2023-11-21T15:03:23;9.47;;;2.13;;